Time;durP1;ratioP1;P1;durP2;ratioP2;P2;SDS_P1;SDS_P2;PMS_P1;PMS_P2;Temp;Humidity;BMP_temperature;BMP_pressure;BME280_temperature;BME280_humidity;BME280_pressure;Samples;Min_cycle;Max_cycle;Signal;HPM_P1;HPM_P2
2024/01/01 00:02:18;;;;;;;1502.65;999.90;;;;;;;;;;5088737;28;20416;-63
2024/01/01 00:04:44;;;;;;;1497.60;999.90;;;;;;;;;;5091911;28;20460;-64
2024/01/01 00:07:11;;;;;;;1508.95;999.90;;;;;;;;;;5090458;28;20028;-64
2024/01/01 00:09:37;;;;;;;1490.78;999.90;;;;;;;;;;5091888;28;20028;-65
2024/01/01 00:12:04;;;;;;;1512.32;999.90;;;;;;;;;;5092078;28;20164;-65
2024/01/01 00:14:31;;;;;;;1488.63;999.90;;;;;;;;;;5087872;28;20031;-65
2024/01/01 00:16:57;;;;;;;1495.60;999.90;;;;;;;;;;5085824;28;20048;-65
2024/01/01 00:19:24;;;;;;;1497.32;999.90;;;;;;;;;;5082054;28;20027;-65
2024/01/01 00:21:51;;;;;;;1482.78;999.90;;;;;;;;;;5077627;28;20051;-66
2024/01/01 00:24:17;;;;;;;1434.43;999.90;;;;;;;;;;5074702;28;20035;-65
2024/01/01 00:26:44;;;;;;;1479.97;999.90;;;;;;;;;;5072624;28;20020;-64
2024/01/01 00:29:11;;;;;;;1490.85;999.90;;;;;;;;;;5072953;28;20020;-65
2024/01/01 00:31:39;;;;;;;1486.25;999.90;;;;;;;;;;5075992;28;20028;-65
2024/01/01 00:34:06;;;;;;;1487.07;999.90;;;;;;;;;;5076209;28;20097;-65
2024/01/01 00:36:32;;;;;;;1486.55;999.90;;;;;;;;;;5079008;28;20154;-64
2024/01/01 00:38:59;;;;;;;1474.72;999.90;;;;;;;;;;5076017;28;20013;-65
2024/01/01 00:41:25;;;;;;;1483.85;999.90;;;;;;;;;;5076102;28;20024;-64
2024/01/01 00:43:52;;;;;;;1467.43;999.90;;;;;;;;;;5075990;28;20507;-64
2024/01/01 00:46:19;;;;;;;1470.00;999.90;;;;;;;;;;5075810;28;20054;-65
2024/01/01 00:48:45;;;;;;;1466.57;999.90;;;;;;;;;;5075777;28;20021;-65
2024/01/01 00:51:12;;;;;;;1482.40;999.90;;;;;;;;;;5079433;28;20021;-66
2024/01/01 00:53:39;;;;;;;1433.78;999.90;;;;;;;;;;5076906;28;20027;-66
2024/01/01 00:56:06;;;;;;;1333.53;999.90;;;;;;;;;;5075408;28;20025;-66
2024/01/01 00:58:33;;;;;;;1391.20;999.90;;;;;;;;;;5075605;28;20032;-65
2024/01/01 01:01:00;;;;;;;1449.63;999.90;;;;;;;;;;5075585;28;20040;-66
2024/01/01 01:03:26;;;;;;;1459.90;999.90;;;;;;;;;;5081855;28;20027;-65
2024/01/01 01:05:54;;;;;;;1483.40;999.90;;;;;;;;;;5076703;28;20473;-65
2024/01/01 01:08:21;;;;;;;1474.25;999.90;;;;;;;;;;5075466;28;20036;-65
2024/01/01 01:10:47;;;;;;;1474.07;999.90;;;;;;;;;;5075229;28;20039;-66
2024/01/01 01:13:14;;;;;;;1345.10;999.90;;;;;;;;;;5077553;28;20112;-64
2024/01/01 01:15:40;;;;;;;1475.53;999.90;;;;;;;;;;5075279;28;20178;-65
2024/01/01 01:18:07;;;;;;;1473.28;999.90;;;;;;;;;;5104311;28;20023;-64
2024/01/01 01:20:34;;;;;;;1483.65;999.90;;;;;;;;;;5115918;28;20511;-64
2024/01/01 01:23:00;;;;;;;1350.05;999.90;;;;;;;;;;5116076;28;20028;-65
2024/01/01 01:25:27;;;;;;;1368.03;999.90;;;;;;;;;;5115565;28;20030;-65
2024/01/01 01:27:53;;;;;;;1324.25;999.90;;;;;;;;;;5111161;28;20036;-67
2024/01/01 01:30:21;;;;;;;1457.05;999.90;;;;;;;;;;5092752;28;20049;-67
2024/01/01 01:32:47;;;;;;;1480.97;999.90;;;;;;;;;;5095057;28;20069;-67
2024/01/01 01:35:14;;;;;;;1343.05;999.90;;;;;;;;;;5095341;28;20031;-65
2024/01/01 01:37:40;;;;;;;1366.45;999.90;;;;;;;;;;5090535;28;20016;-65
2024/01/01 01:40:07;;;;;;;1499.22;999.90;;;;;;;;;;5074918;28;20466;-65
2024/01/01 01:42:34;;;;;;;1478.93;999.90;;;;;;;;;;5073993;28;20043;-65
2024/01/01 01:45:00;;;;;;;1335.25;999.90;;;;;;;;;;5075038;28;20389;-65
2024/01/01 01:47:27;;;;;;;1484.55;999.90;;;;;;;;;;5074608;28;20025;-66
2024/01/01 01:49:54;;;;;;;1337.60;999.90;;;;;;;;;;5074593;28;20029;-65
2024/01/01 01:52:21;;;;;;;1493.80;999.90;;;;;;;;;;5075685;28;20027;-65
2024/01/01 01:54:50;;;;;;;1488.40;999.90;;;;;;;;;;5074316;28;20496;-65
2024/01/01 01:57:17;;;;;;;1356.47;999.90;;;;;;;;;;5074578;28;20074;-65
2024/01/01 01:59:43;;;;;;;1462.80;999.90;;;;;;;;;;5075332;28;20016;-66
2024/01/01 02:02:11;;;;;;;1362.55;999.90;;;;;;;;;;5074318;28;20033;-66
2024/01/01 02:04:38;;;;;;;1481.90;999.90;;;;;;;;;;5074497;28;20032;-64
2024/01/01 02:07:05;;;;;;;1501.57;999.90;;;;;;;;;;5075544;28;20481;-66
2024/01/01 02:09:31;;;;;;;1494.13;999.90;;;;;;;;;;5074185;28;20036;-65
2024/01/01 02:11:58;;;;;;;1501.28;999.90;;;;;;;;;;5075352;28;20447;-66
2024/01/01 02:14:25;;;;;;;1497.70;999.90;;;;;;;;;;5075401;28;20024;-65
2024/01/01 02:16:51;;;;;;;1478.00;999.90;;;;;;;;;;5073953;28;20052;-65
2024/01/01 02:19:20;;;;;;;1501.30;999.90;;;;;;;;;;5074111;28;20538;-64
2024/01/01 02:21:47;;;;;;;1494.32;999.90;;;;;;;;;;5074126;28;20048;-65
2024/01/01 02:24:15;;;;;;;1495.55;999.90;;;;;;;;;;5074010;28;20374;-65
2024/01/01 02:26:43;;;;;;;1495.00;999.90;;;;;;;;;;5074150;28;20033;-64
2024/01/01 02:29:10;;;;;;;1495.85;999.90;;;;;;;;;;5075009;28;20029;-65
2024/01/01 02:31:37;;;;;;;1481.68;999.90;;;;;;;;;;5073666;28;20028;-65
2024/01/01 02:34:03;;;;;;;1489.88;999.90;;;;;;;;;;5074202;28;20057;-66
2024/01/01 02:36:30;;;;;;;1486.20;999.90;;;;;;;;;;5073728;28;20085;-68
2024/01/01 02:38:57;;;;;;;1455.10;999.90;;;;;;;;;;5073869;28;20023;-65
2024/01/01 02:41:24;;;;;;;1499.85;999.90;;;;;;;;;;5075540;28;20037;-64
2024/01/01 02:43:50;;;;;;;1483.45;999.90;;;;;;;;;;5093323;28;20036;-63
2024/01/01 02:46:17;;;;;;;1375.32;999.90;;;;;;;;;;5094112;28;20020;-65
2024/01/01 02:48:43;;;;;;;1375.78;999.90;;;;;;;;;;5094200;28;20047;-65
2024/01/01 02:51:10;;;;;;;1391.07;999.90;;;;;;;;;;5090771;28;20020;-65
2024/01/01 02:53:36;;;;;;;1510.10;999.90;;;;;;;;;;5077872;28;20067;-64
2024/01/01 02:56:03;;;;;;;1496.28;999.90;;;;;;;;;;5073599;28;20511;-66
2024/01/01 02:58:30;;;;;;;1507.63;999.90;;;;;;;;;;5081358;28;20054;-66
2024/01/01 03:00:56;;;;;;;1483.22;999.90;;;;;;;;;;5083854;28;20430;-64
2024/01/01 03:03:23;;;;;;;1493.00;999.90;;;;;;;;;;5080665;28;20024;-66
2024/01/01 03:05:49;;;;;;;1487.22;999.90;;;;;;;;;;5082855;28;20021;-65
2024/01/01 03:08:16;;;;;;;1372.95;999.90;;;;;;;;;;5058929;28;20024;-64
2024/01/01 03:10:43;;;;;;;1488.10;999.90;;;;;;;;;;5074022;28;20021;-67
2024/01/01 03:13:09;;;;;;;1507.22;999.90;;;;;;;;;;5074017;28;20389;-64
2024/01/01 03:15:36;;;;;;;1479.28;999.90;;;;;;;;;;5073855;28;20040;-63
2024/01/01 03:18:05;;;;;;;1485.13;999.90;;;;;;;;;;5084020;28;20036;-64
2024/01/01 03:20:33;;;;;;;1490.72;999.90;;;;;;;;;;5084901;28;20025;-64
2024/01/01 03:22:59;;;;;;;1498.10;999.90;;;;;;;;;;5082214;28;20429;-64
2024/01/01 03:25:26;;;;;;;1405.55;999.90;;;;;;;;;;5090850;28;20032;-65
2024/01/01 03:27:54;;;;;;;1484.15;999.90;;;;;;;;;;5093748;28;20024;-67
2024/01/01 03:30:21;;;;;;;1483.35;999.90;;;;;;;;;;5093725;28;20028;-67
2024/01/01 03:32:50;;;;;;;1512.53;999.90;;;;;;;;;;5080818;28;20048;-65
2024/01/01 03:35:19;;;;;;;1505.05;999.90;;;;;;;;;;5073076;28;20040;-68
2024/01/01 03:37:45;;;;;;;1502.78;999.90;;;;;;;;;;5073068;28;20418;-67
2024/01/01 03:40:13;;;;;;;1496.68;999.90;;;;;;;;;;5085297;28;20162;-66
2024/01/01 03:42:39;;;;;;;1498.43;999.90;;;;;;;;;;5073237;28;20028;-67
2024/01/01 03:45:07;;;;;;;1480.20;999.90;;;;;;;;;;5081036;28;20028;-65
2024/01/01 03:47:34;;;;;;;1490.05;999.90;;;;;;;;;;5084382;28;20473;-64
2024/01/01 03:50:01;;;;;;;1493.78;999.90;;;;;;;;;;5073239;28;20055;-67
2024/01/01 03:52:27;;;;;;;1499.53;999.90;;;;;;;;;;5079556;28;20030;-65
2024/01/01 03:54:54;;;;;;;1504.22;999.90;;;;;;;;;;5083717;28;20016;-67
2024/01/01 03:57:21;;;;;;;1494.97;999.90;;;;;;;;;;5081543;28;20509;-65
2024/01/01 03:59:47;;;;;;;1404.03;999.90;;;;;;;;;;5083323;28;20027;-67
2024/01/01 04:02:14;;;;;;;1424.85;999.90;;;;;;;;;;5082587;28;20020;-67
2024/01/01 04:04:43;;;;;;;1443.93;999.90;;;;;;;;;;5091932;22;20053;-68
2024/01/01 04:07:10;;;;;;;1407.78;999.90;;;;;;;;;;5045650;28;20402;-67
2024/01/01 04:09:36;;;;;;;1500.63;999.90;;;;;;;;;;5044053;28;20041;-66
2024/01/01 04:12:03;;;;;;;1499.75;999.90;;;;;;;;;;5043623;28;20017;-66
2024/01/01 04:14:30;;;;;;;1499.32;999.90;;;;;;;;;;5043422;28;20104;-67
2024/01/01 04:16:57;;;;;;;1487.18;999.90;;;;;;;;;;5036892;28;20099;-66
2024/01/01 04:19:24;;;;;;;1439.85;999.90;;;;;;;;;;5052761;28;20029;-68
2024/01/01 04:21:50;;;;;;;1508.75;999.90;;;;;;;;;;5048467;28;20014;-66
2024/01/01 04:24:17;;;;;;;1503.53;999.90;;;;;;;;;;5046442;28;20021;-66
2024/01/01 04:26:44;;;;;;;1400.50;999.90;;;;;;;;;;5045653;28;20021;-66
2024/01/01 04:29:12;;;;;;;1402.43;999.90;;;;;;;;;;5046778;28;20500;-66
2024/01/01 04:31:38;;;;;;;1417.18;999.90;;;;;;;;;;5046795;28;20272;-66
2024/01/01 04:34:05;;;;;;;1506.82;999.90;;;;;;;;;;5043520;28;20063;-64
2024/01/01 04:36:31;;;;;;;1494.93;999.90;;;;;;;;;;5046365;28;20100;-65
2024/01/01 04:38:59;;;;;;;1412.55;999.90;;;;;;;;;;5046755;28;20512;-65
2024/01/01 04:41:26;;;;;;;1407.38;999.90;;;;;;;;;;5046658;28;20554;-64
2024/01/01 04:43:52;;;;;;;1461.82;999.90;;;;;;;;;;5045927;28;20017;-65
2024/01/01 04:46:19;;;;;;;1506.68;999.90;;;;;;;;;;5045129;28;20021;-65
2024/01/01 04:48:46;;;;;;;1490.75;999.90;;;;;;;;;;5046727;28;20025;-65
2024/01/01 04:51:12;;;;;;;1445.70;999.90;;;;;;;;;;5045708;28;20097;-65
2024/01/01 04:53:39;;;;;;;1398.07;999.90;;;;;;;;;;5043059;28;20032;-64
2024/01/01 04:56:06;;;;;;;1429.72;999.90;;;;;;;;;;5039784;28;20099;-65
2024/01/01 04:58:34;;;;;;;1499.20;999.90;;;;;;;;;;5048479;28;20029;-63
2024/01/01 05:01:00;;;;;;;1509.60;999.90;;;;;;;;;;5045937;28;20026;-64
2024/01/01 05:03:27;;;;;;;1487.47;999.90;;;;;;;;;;5046100;28;20030;-65
2024/01/01 05:05:54;;;;;;;1499.15;999.90;;;;;;;;;;5041565;28;20159;-64
2024/01/01 05:08:20;;;;;;;1500.38;999.90;;;;;;;;;;5045591;28;20451;-64
2024/01/01 05:10:47;;;;;;;1494.60;999.90;;;;;;;;;;5045145;28;20057;-65
2024/01/01 05:13:15;;;;;;;1437.95;999.90;;;;;;;;;;5044169;28;20056;-64
2024/01/01 05:15:43;;;;;;;1461.90;999.90;;;;;;;;;;5044936;28;20100;-65
2024/01/01 05:18:10;;;;;;;1501.18;999.90;;;;;;;;;;5046412;28;20063;-64
2024/01/01 05:20:36;;;;;;;1490.00;999.90;;;;;;;;;;5044653;28;20021;-63
2024/01/01 05:23:03;;;;;;;1494.32;999.90;;;;;;;;;;5044827;28;20056;-63
2024/01/01 05:25:29;;;;;;;1488.85;999.90;;;;;;;;;;5045955;28;20037;-64
2024/01/01 05:27:56;;;;;;;1496.20;999.90;;;;;;;;;;5044089;28;20029;-65
2024/01/01 05:30:23;;;;;;;1490.25;999.90;;;;;;;;;;5043496;28;20024;-62
2024/01/01 05:32:49;;;;;;;1399.90;999.90;;;;;;;;;;5045196;28;20029;-64
2024/01/01 05:35:16;;;;;;;1477.63;999.90;;;;;;;;;;5043474;28;20025;-65
2024/01/01 05:37:43;;;;;;;1481.80;999.90;;;;;;;;;;5044041;28;20032;-68
2024/01/01 05:40:10;;;;;;;1490.13;999.90;;;;;;;;;;5042435;28;20048;-65
2024/01/01 05:42:36;;;;;;;1502.55;999.90;;;;;;;;;;5045249;28;20028;-64
2024/01/01 05:45:03;;;;;;;1498.50;999.90;;;;;;;;;;5042784;28;20013;-64
2024/01/01 05:47:30;;;;;;;1423.50;999.90;;;;;;;;;;5040994;28;20033;-65
2024/01/01 05:49:56;;;;;;;1434.53;999.90;;;;;;;;;;5043711;28;20032;-65
2024/01/01 05:52:23;;;;;;;1497.55;999.90;;;;;;;;;;5043611;28;20083;-64
2024/01/01 05:54:50;;;;;;;1505.55;999.90;;;;;;;;;;5041993;28;20041;-65
2024/01/01 05:57:16;;;;;;;1482.30;999.90;;;;;;;;;;5043550;28;20088;-67
2024/01/01 05:59:43;;;;;;;1440.30;999.90;;;;;;;;;;5044354;28;20437;-64
2024/01/01 06:02:09;;;;;;;1500.80;999.90;;;;;;;;;;5044552;28;20382;-65
2024/01/01 06:04:36;;;;;;;1484.85;999.90;;;;;;;;;;5042967;28;20080;-63
2024/01/01 06:07:03;;;;;;;1447.85;999.90;;;;;;;;;;5040583;28;20257;-65
2024/01/01 06:09:29;;;;;;;1497.35;999.90;;;;;;;;;;5044120;28;20032;-66
2024/01/01 06:11:56;;;;;;;1443.55;999.90;;;;;;;;;;5044944;28;20026;-62
2024/01/01 06:14:22;;;;;;;1446.60;999.90;;;;;;;;;;5040656;28;20462;-65
2024/01/01 06:16:49;;;;;;;1491.38;999.90;;;;;;;;;;5044205;28;20028;-65
2024/01/01 06:19:16;;;;;;;1489.32;999.90;;;;;;;;;;5044753;28;20649;-64
2024/01/01 06:21:42;;;;;;;1492.30;999.90;;;;;;;;;;5039992;28;20028;-65
2024/01/01 06:24:09;;;;;;;1450.93;999.90;;;;;;;;;;5043976;28;20552;-65
2024/01/01 06:26:35;;;;;;;1516.97;999.90;;;;;;;;;;5044501;28;20034;-64
2024/01/01 06:29:02;;;;;;;1520.60;999.90;;;;;;;;;;5038845;28;20048;-63
2024/01/01 06:31:29;;;;;;;1511.50;999.90;;;;;;;;;;5040053;28;20026;-64
2024/01/01 06:33:56;;;;;;;1468.63;999.90;;;;;;;;;;5042379;28;20024;-65
2024/01/01 06:36:22;;;;;;;1511.50;999.90;;;;;;;;;;5039910;28;20028;-65
2024/01/01 06:38:49;;;;;;;1505.40;999.90;;;;;;;;;;5043160;28;20025;-64
2024/01/01 06:41:15;;;;;;;1526.30;999.90;;;;;;;;;;5044366;28;20024;-65
2024/01/01 06:43:42;;;;;;;1508.78;999.90;;;;;;;;;;5042666;28;20030;-65
2024/01/01 06:46:09;;;;;;;1459.38;999.90;;;;;;;;;;5043748;28;20091;-66
2024/01/01 06:48:36;;;;;;;1451.70;999.90;;;;;;;;;;5043491;28;20032;-66
2024/01/01 06:51:02;;;;;;;1519.65;999.90;;;;;;;;;;5039840;28;20049;-67
2024/01/01 06:53:29;;;;;;;1444.90;999.90;;;;;;;;;;5043505;28;20025;-65
2024/01/01 06:55:56;;;;;;;1507.55;999.90;;;;;;;;;;5041608;28;20025;-65
2024/01/01 06:58:22;;;;;;;1443.13;999.90;;;;;;;;;;5018134;28;20052;-66
2024/01/01 07:00:50;;;;;;;1454.40;999.90;;;;;;;;;;5042170;28;20531;-66
2024/01/01 07:03:16;;;;;;;1480.45;999.90;;;;;;;;;;5034828;28;20053;-66
2024/01/01 07:05:43;;;;;;;1525.97;999.90;;;;;;;;;;5034774;28;20041;-65
2024/01/01 07:08:10;;;;;;;1474.93;999.90;;;;;;;;;;5035498;28;20032;-66
2024/01/01 07:10:36;;;;;;;1506.65;999.90;;;;;;;;;;5036358;28;20036;-65
2024/01/01 07:13:03;;;;;;;1457.97;999.90;;;;;;;;;;5034482;28;20394;-66
2024/01/01 07:15:29;;;;;;;1463.10;999.90;;;;;;;;;;5034591;28;20025;-66
2024/01/01 07:17:56;;;;;;;1456.75;999.90;;;;;;;;;;5034653;28;20033;-66
2024/01/01 07:20:23;;;;;;;1543.35;999.90;;;;;;;;;;5036871;28;20071;-66
2024/01/01 07:22:49;;;;;;;1517.32;999.90;;;;;;;;;;5041256;28;20091;-64
2024/01/01 07:25:16;;;;;;;1523.38;999.90;;;;;;;;;;5045313;28;20029;-63
2024/01/01 07:27:42;;;;;;;1536.75;999.90;;;;;;;;;;5039204;28;20091;-64
2024/01/01 07:30:09;;;;;;;1453.30;999.90;;;;;;;;;;5034484;28;20049;-65
2024/01/01 07:32:36;;;;;;;1478.45;999.90;;;;;;;;;;5034663;28;20108;-66
2024/01/01 07:35:02;;;;;;;1529.45;999.90;;;;;;;;;;5041937;28;20029;-66
2024/01/01 07:37:29;;;;;;;1532.88;999.90;;;;;;;;;;5043190;28;20013;-64
2024/01/01 07:39:55;;;;;;;1520.80;999.90;;;;;;;;;;5042736;28;20029;-64
2024/01/01 07:42:22;;;;;;;1520.85;999.90;;;;;;;;;;5045895;28;20087;-65
2024/01/01 07:44:49;;;;;;;1510.00;999.90;;;;;;;;;;5045026;28;20033;-64
2024/01/01 07:47:16;;;;;;;1524.85;999.90;;;;;;;;;;5044834;28;20358;-66
2024/01/01 07:49:44;;;;;;;1497.05;999.90;;;;;;;;;;5045487;28;20509;-66
2024/01/01 07:52:11;;;;;;;1533.40;999.90;;;;;;;;;;5043112;28;20033;-65
2024/01/01 07:54:39;;;;;;;1473.38;999.90;;;;;;;;;;5042997;28;20386;-66
2024/01/01 07:57:06;;;;;;;1460.28;999.90;;;;;;;;;;5045279;28;20025;-67
2024/01/01 07:59:33;;;;;;;1529.15;999.90;;;;;;;;;;5044562;28;20028;-67
2024/01/01 08:02:00;;;;;;;1485.25;999.90;;;;;;;;;;5042666;28;20037;-67
2024/01/01 08:04:27;;;;;;;1509.10;999.90;;;;;;;;;;5045476;28;20045;-67
2024/01/01 08:06:54;;;;;;;1442.10;999.90;;;;;;;;;;5042785;28;20057;-67
2024/01/01 08:09:20;;;;;;;1452.80;999.90;;;;;;;;;;5044188;28;20167;-67
2024/01/01 08:11:47;;;;;;;1497.18;999.90;;;;;;;;;;5041102;28;20051;-67
2024/01/01 08:14:13;;;;;;;1477.53;999.90;;;;;;;;;;5046606;28;20013;-68
2024/01/01 08:16:40;;;;;;;1432.55;999.90;;;;;;;;;;5038850;28;20074;-68
2024/01/01 08:19:07;;;;;;;1450.25;999.90;;;;;;;;;;5035497;28;20502;-67
2024/01/01 08:21:34;;;;;;;1483.32;999.90;;;;;;;;;;5047912;28;20025;-67
2024/01/01 08:24:00;;;;;;;1463.72;999.90;;;;;;;;;;5045754;28;20482;-67
2024/01/01 08:26:27;;;;;;;1518.47;999.90;;;;;;;;;;5041256;28;20027;-66
2024/01/01 08:28:53;;;;;;;1532.47;999.90;;;;;;;;;;5044946;28;20052;-66
2024/01/01 08:31:20;;;;;;;1511.80;999.90;;;;;;;;;;5041311;28;20028;-67
2024/01/01 08:33:47;;;;;;;1441.35;999.90;;;;;;;;;;5038586;28;20340;-68
2024/01/01 08:36:14;;;;;;;1467.90;999.90;;;;;;;;;;5034675;28;20029;-67
2024/01/01 08:38:40;;;;;;;1451.53;999.90;;;;;;;;;;5038337;28;20040;-67
2024/01/01 08:41:07;;;;;;;1568.00;999.90;;;;;;;;;;5044605;28;20038;-67
2024/01/01 08:43:34;;;;;;;1525.57;999.90;;;;;;;;;;5045320;28;20105;-67
2024/01/01 08:46:00;;;;;;;1512.72;999.90;;;;;;;;;;5046727;28;20078;-67
2024/01/01 08:48:27;;;;;;;1471.28;999.90;;;;;;;;;;5037608;28;20037;-70
2024/01/01 08:50:53;;;;;;;1437.63;999.90;;;;;;;;;;5023677;28;20028;-70
2024/01/01 08:53:20;;;;;;;1442.88;999.90;;;;;;;;;;5045149;28;20044;-69
2024/01/01 08:55:47;;;;;;;1466.53;999.90;;;;;;;;;;5041018;28;20108;-69
2024/01/01 08:58:14;;;;;;;1430.70;999.90;;;;;;;;;;5042040;28;20538;-70
2024/01/01 09:00:41;;;;;;;1508.05;999.90;;;;;;;;;;5041632;28;20025;-71
2024/01/01 09:03:07;;;;;;;1454.43;999.90;;;;;;;;;;5021948;28;20040;-68
2024/01/01 09:05:34;;;;;;;1445.97;999.90;;;;;;;;;;5046961;28;20067;-66
2024/01/01 09:08:00;;;;;;;1484.55;999.90;;;;;;;;;;5037599;28;20026;-65
2024/01/01 09:10:27;;;;;;;1518.07;999.90;;;;;;;;;;5034091;28;20025;-65
2024/01/01 09:12:55;;;;;;;1467.05;999.90;;;;;;;;;;5036640;28;20037;-65
2024/01/01 09:15:21;;;;;;;1476.03;999.90;;;;;;;;;;5042525;28;20065;-65
2024/01/01 09:17:48;;;;;;;1513.97;999.90;;;;;;;;;;5045050;28;20021;-65
2024/01/01 09:20:14;;;;;;;1525.15;999.90;;;;;;;;;;5042641;28;20044;-67
2024/01/01 09:22:41;;;;;;;1429.70;999.90;;;;;;;;;;5032788;28;20119;-66
2024/01/01 09:25:08;;;;;;;1521.78;999.90;;;;;;;;;;5039982;28;20025;-66
2024/01/01 09:27:34;;;;;;;1444.72;999.90;;;;;;;;;;5043572;28;20458;-65
2024/01/01 09:30:01;;;;;;;1519.25;999.90;;;;;;;;;;5041656;28;20037;-67
2024/01/01 09:32:27;;;;;;;1509.88;999.90;;;;;;;;;;5035303;28;20029;-67
2024/01/01 09:34:54;;;;;;;1455.13;999.90;;;;;;;;;;5040044;28;20358;-68
2024/01/01 09:37:21;;;;;;;1438.53;999.90;;;;;;;;;;5039503;28;20017;-67
2024/01/01 09:39:47;;;;;;;1514.20;999.90;;;;;;;;;;5041564;28;20018;-66
2024/01/01 09:42:14;;;;;;;1438.25;999.90;;;;;;;;;;5042555;28;20030;-68
2024/01/01 09:44:40;;;;;;;1522.95;999.90;;;;;;;;;;5041889;28;20025;-67
2024/01/01 09:47:07;;;;;;;1460.53;999.90;;;;;;;;;;5044312;28;20040;-68
2024/01/01 09:49:34;;;;;;;1436.82;999.90;;;;;;;;;;5042860;28;20120;-66
2024/01/01 09:52:00;;;;;;;1491.85;999.90;;;;;;;;;;5041745;28;20032;-65
2024/01/01 09:54:27;;;;;;;1440.13;999.90;;;;;;;;;;5043653;28;20236;-66
2024/01/01 09:56:53;;;;;;;1431.75;999.90;;;;;;;;;;5040519;28;20049;-66
2024/01/01 09:59:40;;;;;;;1442.95;999.90;;;;;;;;;;5043485;28;20088;-66
2024/01/01 10:02:08;;;;;;;1501.22;999.90;;;;;;;;;;5042926;28;20507;-66
2024/01/01 10:04:34;;;;;;;1517.30;999.90;;;;;;;;;;5041347;28;20049;-66
2024/01/01 10:07:02;;;;;;;1454.72;999.90;;;;;;;;;;5039197;28;20033;-66
2024/01/01 10:09:29;;;;;;;1518.32;999.90;;;;;;;;;;5031549;28;20513;-64
2024/01/01 10:12:16;;;;;;;1508.32;999.90;;;;;;;;;;5039798;28;20029;-67
2024/01/01 10:14:47;;;;;;;1516.82;999.90;;;;;;;;;;5041742;28;20051;-66
2024/01/01 10:17:15;;;;;;;1468.03;999.90;;;;;;;;;;5040482;28;20024;-66
2024/01/01 10:19:52;;;;;;;1519.80;999.90;;;;;;;;;;5042366;28;20075;-66
2024/01/01 10:22:19;;;;;;;1516.10;999.90;;;;;;;;;;5035795;28;20535;-67
2024/01/01 10:24:49;;;;;;;1448.18;999.90;;;;;;;;;;5044554;28;20068;-66
2024/01/01 10:27:17;;;;;;;1432.72;999.90;;;;;;;;;;5044482;28;20017;-66
2024/01/01 10:29:46;;;;;;;1507.63;999.90;;;;;;;;;;5042408;28;20017;-66
2024/01/01 10:32:15;;;;;;;1516.85;999.90;;;;;;;;;;5041030;28;20049;-66
2024/01/01 10:34:42;;;;;;;1512.57;999.90;;;;;;;;;;5040256;28;20036;-65
2024/01/01 10:37:09;;;;;;;1511.32;999.90;;;;;;;;;;5042696;28;20032;-65
2024/01/01 10:39:37;;;;;;;1518.10;999.90;;;;;;;;;;5040298;28;20021;-66
2024/01/01 10:42:04;;;;;;;1417.93;999.90;;;;;;;;;;5042822;28;20037;-68
2024/01/01 10:44:31;;;;;;;1515.57;999.90;;;;;;;;;;5040399;28;20055;-68
2024/01/01 10:46:58;;;;;;;1558.28;999.90;;;;;;;;;;5039804;28;20280;-68
2024/01/01 10:49:29;;;;;;;1530.70;999.90;;;;;;;;;;5044922;28;20025;-66
2024/01/01 10:52:16;;;;;;;1504.10;999.90;;;;;;;;;;5039783;28;20108;-66
2024/01/01 10:54:45;;;;;;;1406.10;999.90;;;;;;;;;;5038645;28;20017;-66
2024/01/01 10:57:16;;;;;;;1416.32;999.90;;;;;;;;;;5043309;28;20021;-66
2024/01/01 10:59:50;;;;;;;1462.53;999.90;;;;;;;;;;5045527;28;20364;-67
2024/01/01 11:02:17;;;;;;;1497.13;999.90;;;;;;;;;;5033714;28;20117;-68
2024/01/01 11:04:43;;;;;;;1515.00;999.90;;;;;;;;;;5033747;28;20076;-67
2024/01/01 11:07:10;;;;;;;1517.90;999.90;;;;;;;;;;5033645;28;20104;-67
2024/01/01 11:09:37;;;;;;;1523.00;999.90;;;;;;;;;;5033661;28;20033;-66
2024/01/01 11:12:05;;;;;;;1522.07;999.90;;;;;;;;;;5029390;28;20022;-66
2024/01/01 11:14:34;;;;;;;1532.32;999.90;;;;;;;;;;5032098;28;20025;-67
2024/01/01 11:17:03;;;;;;;1417.57;999.90;;;;;;;;;;5033500;28;20532;-67
2024/01/01 11:19:38;;;;;;;1513.95;999.90;;;;;;;;;;5033595;28;20032;-66
2024/01/01 11:22:29;;;;;;;1532.78;999.90;;;;;;;;;;5033194;28;20029;-68
2024/01/01 11:24:56;;;;;;;1530.90;999.90;;;;;;;;;;5033694;28;20025;-66
2024/01/01 11:27:24;;;;;;;1529.25;999.90;;;;;;;;;;5033360;28;20041;-67
2024/01/01 11:29:51;;;;;;;1420.40;999.90;;;;;;;;;;5017235;28;20037;-65
2024/01/01 11:32:19;;;;;;;1553.25;999.90;;;;;;;;;;5013708;28;20057;-66
2024/01/01 11:35:03;;;;;;;1417.25;999.90;;;;;;;;;;5013496;28;20029;-65
2024/01/01 11:37:29;;;;;;;1440.13;999.90;;;;;;;;;;5011633;28;20026;-66
2024/01/01 11:40:01;;;;;;;1522.43;999.90;;;;;;;;;;5012478;28;20424;-65
2024/01/01 11:42:28;;;;;;;1523.30;999.90;;;;;;;;;;5017515;28;20033;-65
2024/01/01 11:45:16;;;;;;;1545.30;999.90;;;;;;;;;;5016014;28;20028;-64
2024/01/01 11:47:43;;;;;;;1548.22;999.90;;;;;;;;;;5033263;28;20470;-66
2024/01/01 11:50:10;;;;;;;1428.53;999.90;;;;;;;;;;5033243;28;20446;-66
2024/01/01 11:52:37;;;;;;;1446.93;999.90;;;;;;;;;;5048226;28;20025;-65
2024/01/01 11:55:04;;;;;;;1534.80;999.90;;;;;;;;;;5041464;28;20049;-65
2024/01/01 11:57:31;;;;;;;1524.80;999.90;;;;;;;;;;5037498;28;20026;-67
2024/01/01 11:59:58;;;;;;;1647.25;999.90;;;;;;;;;;5040851;28;20028;-67
2024/01/01 12:02:24;;;;;;;1440.75;999.90;;;;;;;;;;5034608;28;20121;-67
2024/01/01 12:04:52;;;;;;;1551.20;999.90;;;;;;;;;;5024451;28;20052;-67
2024/01/01 12:07:39;;;;;;;1653.95;999.90;;;;;;;;;;5041206;28;20025;-66
2024/01/01 12:10:07;;;;;;;1665.07;999.90;;;;;;;;;;5041421;28;20021;-66
2024/01/01 12:12:36;;;;;;;1575.18;999.90;;;;;;;;;;5037149;28;20024;-66
2024/01/01 12:15:13;;;;;;;1442.25;999.90;;;;;;;;;;5040060;28;20023;-66
2024/01/01 12:17:44;;;;;;;1599.75;999.90;;;;;;;;;;5040782;28;20005;-65
2024/01/01 12:20:14;;;;;;;1476.70;999.90;;;;;;;;;;5040392;28;20549;-65
2024/01/01 12:22:41;;;;;;;1553.22;999.90;;;;;;;;;;5043327;28;20029;-65
2024/01/01 12:25:07;;;;;;;1564.07;999.90;;;;;;;;;;5041688;28;20021;-64
2024/01/01 12:27:34;;;;;;;1541.95;999.90;;;;;;;;;;5046509;28;20021;-66
2024/01/01 12:30:03;;;;;;;1535.15;999.90;;;;;;;;;;5045754;28;20021;-65
2024/01/01 12:32:30;;;;;;;1562.57;999.90;;;;;;;;;;5042514;28;20429;-66
2024/01/01 12:34:57;;;;;;;1564.30;999.90;;;;;;;;;;5045772;28;20465;-66
2024/01/01 12:37:23;;;;;;;1569.45;999.90;;;;;;;;;;5047414;28;20489;-67
2024/01/01 12:39:50;;;;;;;1564.47;999.90;;;;;;;;;;5041634;28;20021;-66
2024/01/01 12:42:17;;;;;;;1542.43;999.90;;;;;;;;;;5044899;28;20417;-67
2024/01/01 12:44:44;;;;;;;1544.03;999.90;;;;;;;;;;5044217;28;20026;-66
2024/01/01 12:47:11;;;;;;;1414.90;999.90;;;;;;;;;;5046516;28;20486;-65
2024/01/01 12:49:38;;;;;;;1574.80;999.90;;;;;;;;;;5045971;28;20028;-65
2024/01/01 12:52:04;;;;;;;1416.82;999.90;;;;;;;;;;5044619;28;20486;-66
2024/01/01 12:54:31;;;;;;;1541.05;999.90;;;;;;;;;;5043926;28;20030;-65
2024/01/01 12:56:58;;;;;;;1538.25;999.90;;;;;;;;;;5044648;28;20093;-67
2024/01/01 12:59:24;;;;;;;1556.95;999.90;;;;;;;;;;5040431;28;20075;-66
2024/01/01 13:01:51;;;;;;;1540.85;999.90;;;;;;;;;;5042388;28;20045;-65
2024/01/01 13:04:18;;;;;;;1537.78;999.90;;;;;;;;;;5042624;28;20352;-66
2024/01/01 13:06:44;;;;;;;1540.50;999.90;;;;;;;;;;5043606;28;20014;-65
2024/01/01 13:09:11;;;;;;;1538.63;999.90;;;;;;;;;;5045950;28;20035;-64
2024/01/01 13:11:37;;;;;;;1552.13;999.90;;;;;;;;;;5043431;28;20021;-65
2024/01/01 13:14:04;;;;;;;1557.57;999.90;;;;;;;;;;5046365;28;20465;-66
2024/01/01 13:16:31;;;;;;;1573.65;999.90;;;;;;;;;;5044440;28;20067;-66
2024/01/01 13:18:57;;;;;;;1617.95;999.90;;;;;;;;;;5040846;28;20021;-66
2024/01/01 13:21:26;;;;;;;1574.82;999.90;;;;;;;;;;5042650;28;20390;-66
2024/01/01 13:23:52;;;;;;;1546.00;999.90;;;;;;;;;;5039490;28;20024;-66
2024/01/01 13:26:19;;;;;;;1539.68;999.90;;;;;;;;;;5032836;28;20052;-65
2024/01/01 13:28:45;;;;;;;1411.10;999.90;;;;;;;;;;5045123;28;20678;-66
2024/01/01 13:31:12;;;;;;;1538.07;999.90;;;;;;;;;;5038053;28;20033;-65
2024/01/01 13:33:39;;;;;;;1530.82;999.90;;;;;;;;;;5042905;28;20104;-66
2024/01/01 13:36:07;;;;;;;1536.35;999.90;;;;;;;;;;5041998;28;20523;-67
2024/01/01 13:38:35;;;;;;;1541.57;999.90;;;;;;;;;;5033501;28;20059;-66
2024/01/01 13:41:02;;;;;;;1546.40;999.90;;;;;;;;;;5037209;28;20029;-65
2024/01/01 13:43:28;;;;;;;1543.07;999.90;;;;;;;;;;5036295;28;20486;-65